createdAt,value
2019-01-12T00:01:24.065Z,11.93
2019-01-12T00:03:53.435Z,12.77
2019-01-12T00:06:22.855Z,12.43
2019-01-12T00:08:52.267Z,12.37
2019-01-12T00:11:21.693Z,12.53
2019-01-12T00:13:51.082Z,12.10
2019-01-12T00:16:21.483Z,14.57
2019-01-12T00:18:50.901Z,15.47
2019-01-12T00:21:20.378Z,14.60
2019-01-12T00:23:49.748Z,15.57
2019-01-12T00:26:19.171Z,13.30
2019-01-12T00:28:48.547Z,19.57
2019-01-12T00:31:17.953Z,12.80
2019-01-12T00:33:47.378Z,14.10
2019-01-12T00:36:16.758Z,14.67
2019-01-12T00:38:46.189Z,13.27
2019-01-12T00:41:15.576Z,13.33
2019-01-12T00:43:45.139Z,14.20
2019-01-12T00:46:14.557Z,13.27
2019-01-12T00:48:43.959Z,14.47
2019-01-12T00:51:13.363Z,14.57
2019-01-12T00:53:42.835Z,14.27
2019-01-12T00:56:12.286Z,13.83
2019-01-12T00:58:41.673Z,13.80
2019-01-12T01:01:11.082Z,13.37
2019-01-12T01:03:40.495Z,14.80
2019-01-12T01:06:09.928Z,15.57
2019-01-12T01:08:39.607Z,16.20
2019-01-12T01:11:09.028Z,14.97
2019-01-12T01:13:38.412Z,14.93
2019-01-12T01:16:07.801Z,15.30
2019-01-12T01:18:37.224Z,15.90
2019-01-12T01:21:06.594Z,15.27
2019-01-12T01:23:36.029Z,17.43
2019-01-12T01:26:05.408Z,16.33
2019-01-12T01:28:34.860Z,13.90
2019-01-12T01:31:04.254Z,16.87
2019-01-12T01:33:33.658Z,16.13
2019-01-12T01:36:03.058Z,15.57
2019-01-12T01:38:32.542Z,14.83
2019-01-12T01:41:01.938Z,18.13
2019-01-12T01:43:31.322Z,17.73
2019-01-12T01:46:00.766Z,16.70
2019-01-12T01:48:30.170Z,16.57
2019-01-12T01:50:59.571Z,15.07
2019-01-12T01:53:29.002Z,16.70
2019-01-12T01:55:58.420Z,15.10
2019-01-12T01:58:27.851Z,15.60
2019-01-12T02:00:57.273Z,15.80
2019-01-12T02:03:26.663Z,15.07
2019-01-12T02:05:56.072Z,15.67
2019-01-12T02:08:25.476Z,16.57
2019-01-12T02:10:54.864Z,16.93
2019-01-12T02:13:24.291Z,15.50
2019-01-12T02:15:53.688Z,16.57
2019-01-12T02:18:23.114Z,16.37
2019-01-12T02:20:52.516Z,16.30
2019-01-12T02:23:21.955Z,13.57
2019-01-12T02:25:51.367Z,15.73
2019-01-12T02:28:20.775Z,16.20
2019-01-12T02:30:50.192Z,15.63
2019-01-12T02:33:19.589Z,15.33
2019-01-12T02:35:48.996Z,14.00
2019-01-12T02:38:18.383Z,15.93
2019-01-12T02:40:47.815Z,12.53
2019-01-12T02:43:17.194Z,12.67
2019-01-12T02:45:46.612Z,12.97
2019-01-12T02:48:16.029Z,14.33
2019-01-12T02:50:45.466Z,14.63
2019-01-12T02:53:14.905Z,13.37
2019-01-12T02:55:44.342Z,12.47
2019-01-12T02:58:13.797Z,13.97
2019-01-12T03:00:43.196Z,12.07
2019-01-12T03:03:12.615Z,11.30
2019-01-12T03:05:42.004Z,13.50
2019-01-12T03:08:11.458Z,14.87
2019-01-12T03:10:40.846Z,12.13
2019-01-12T03:13:10.219Z,11.73
2019-01-12T03:15:39.639Z,12.87
2019-01-12T03:18:09.034Z,11.70
2019-01-12T03:20:38.430Z,14.27
2019-01-12T03:23:07.845Z,12.20
2019-01-12T03:25:37.267Z,10.80
2019-01-12T03:28:06.652Z,12.30
2019-01-12T03:30:36.721Z,11.77
2019-01-12T03:33:06.262Z,13.07
2019-01-12T03:35:35.771Z,12.73
2019-01-12T03:38:05.156Z,12.77
2019-01-12T03:40:34.538Z,11.57
2019-01-12T03:43:03.955Z,10.93
2019-01-12T03:45:33.350Z,11.67
2019-01-12T03:48:02.755Z,12.27
2019-01-12T03:50:32.135Z,14.53
2019-01-12T03:53:01.547Z,11.30
2019-01-12T03:55:31.005Z,14.30
2019-01-12T03:58:00.543Z,12.30
2019-01-12T04:00:29.940Z,11.70
2019-01-12T04:02:59.330Z,11.83
2019-01-12T04:05:28.783Z,11.83
2019-01-12T04:07:58.225Z,12.47
2019-01-12T04:10:27.644Z,12.50
2019-01-12T04:12:57.035Z,12.40
2019-01-12T04:15:26.440Z,12.40
2019-01-12T04:17:55.835Z,12.10
2019-01-12T04:20:25.532Z,11.33
2019-01-12T04:22:55.256Z,13.50
2019-01-12T04:25:24.660Z,12.90
2019-01-12T04:27:54.568Z,11.87
2019-01-12T04:30:23.998Z,11.20
2019-01-12T04:32:53.382Z,12.40
2019-01-12T04:35:22.790Z,13.73
2019-01-12T04:37:52.208Z,13.03
2019-01-12T04:40:21.797Z,13.23
2019-01-12T04:42:51.216Z,13.00
2019-01-12T04:45:20.604Z,11.23
2019-01-12T04:47:50.036Z,12.13
2019-01-12T04:50:19.861Z,11.30
2019-01-12T04:52:49.296Z,12.10
2019-01-12T04:55:18.750Z,14.20
2019-01-12T04:57:48.281Z,12.57
2019-01-12T05:00:18.968Z,13.80
2019-01-12T05:02:48.374Z,17.50
2019-01-12T05:05:18.083Z,15.77
2019-01-12T05:07:47.476Z,14.47
2019-01-12T05:10:17.092Z,13.80
2019-01-12T05:12:46.456Z,12.33
2019-01-12T05:15:16.310Z,14.93
2019-01-12T05:17:45.722Z,13.87
2019-01-12T05:20:19.775Z,14.07
2019-01-12T05:22:49.457Z,15.30
2019-01-12T05:25:18.915Z,16.17
2019-01-12T05:27:48.376Z,16.10
2019-01-12T05:30:19.709Z,16.03
2019-01-12T05:32:49.119Z,14.47
2019-01-12T05:35:20.339Z,15.43
2019-01-12T05:37:49.755Z,14.93
2019-01-12T05:40:19.147Z,12.93
2019-01-12T05:42:48.572Z,14.53
2019-01-12T05:45:17.962Z,15.50
2019-01-12T05:47:47.714Z,15.43
2019-01-12T05:50:17.099Z,14.23
2019-01-12T05:52:46.510Z,16.30
2019-01-12T05:55:15.938Z,11.80
2019-01-12T05:57:45.322Z,15.60
2019-01-12T06:00:22.255Z,15.50
2019-01-12T06:02:51.659Z,14.03
2019-01-12T06:05:21.088Z,16.00
2019-01-12T06:07:50.475Z,13.73
2019-01-12T06:10:19.895Z,15.47
2019-01-12T06:12:49.291Z,15.60
2019-01-12T06:15:18.787Z,13.37
2019-01-12T06:17:48.216Z,13.47
2019-01-12T06:20:17.652Z,14.97
2019-01-12T06:22:47.051Z,17.33
2019-01-12T06:25:16.431Z,15.23
2019-01-12T06:27:45.832Z,16.87
2019-01-12T06:30:17.446Z,13.33
2019-01-12T06:32:46.843Z,17.10
2019-01-12T06:35:16.367Z,16.60
2019-01-12T06:37:45.855Z,15.90
2019-01-12T06:40:17.328Z,14.50
2019-01-12T06:42:46.791Z,14.73
2019-01-12T06:45:16.623Z,17.57
2019-01-12T06:47:46.067Z,18.70
2019-01-12T06:50:16.852Z,16.53
2019-01-12T06:52:46.235Z,16.90
2019-01-12T06:55:15.667Z,20.43
2019-01-12T06:57:45.036Z,19.47
2019-01-12T07:00:16.836Z,18.30
2019-01-12T07:02:46.348Z,15.77
2019-01-12T07:05:15.752Z,16.13
2019-01-12T07:07:45.171Z,16.17
2019-01-12T07:10:15.418Z,19.03
2019-01-12T07:12:44.856Z,14.20
2019-01-12T07:15:14.827Z,18.10
2019-01-12T07:17:44.195Z,21.33
2019-01-12T07:20:17.766Z,16.53
2019-01-12T07:22:47.151Z,22.17
2019-01-12T07:25:16.572Z,22.00
2019-01-12T07:27:45.973Z,22.07
2019-01-12T07:30:22.864Z,18.70
2019-01-12T07:32:52.239Z,20.73
2019-01-12T07:35:21.630Z,17.90
2019-01-12T07:37:51.064Z,18.27
2019-01-12T07:40:20.451Z,19.80
2019-01-12T07:42:49.856Z,16.77
2019-01-12T07:45:19.242Z,14.87
2019-01-12T07:47:48.647Z,16.13
2019-01-12T07:50:18.048Z,16.53
2019-01-12T07:52:47.743Z,15.07
2019-01-12T07:55:17.125Z,13.43
2019-01-12T07:57:46.564Z,14.20
2019-01-12T08:00:22.742Z,17.93
2019-01-12T08:02:52.216Z,15.13
2019-01-12T08:05:22.410Z,17.43
2019-01-12T08:07:51.851Z,16.53
2019-01-12T08:10:23.434Z,13.80
2019-01-12T08:12:52.764Z,14.57
2019-01-12T08:15:22.347Z,16.53
2019-01-12T08:17:51.893Z,19.00
2019-01-12T08:20:21.300Z,16.27
2019-01-12T08:22:50.757Z,15.77
2019-01-12T08:25:20.171Z,16.47
2019-01-12T08:27:49.640Z,15.57
2019-01-12T08:30:19.301Z,15.17
2019-01-12T08:32:48.706Z,20.37
2019-01-12T08:35:18.133Z,15.87
2019-01-12T08:37:47.534Z,13.30
2019-01-12T08:40:17.048Z,16.57
2019-01-12T08:42:46.465Z,14.73
2019-01-12T08:45:15.865Z,19.87
2019-01-12T08:47:45.259Z,14.83
2019-01-12T08:50:19.158Z,15.47
2019-01-12T08:52:48.732Z,17.30
2019-01-12T08:55:18.224Z,15.50
2019-01-12T08:57:47.833Z,18.67
2019-01-12T09:00:23.721Z,13.80
2019-01-12T09:02:53.214Z,15.83
2019-01-12T09:05:22.618Z,13.50
2019-01-12T09:07:52.117Z,18.80
2019-01-12T09:10:22.469Z,14.23
2019-01-12T09:12:52.003Z,13.47
2019-01-12T09:15:22.020Z,15.93
2019-01-12T09:17:51.429Z,12.97
2019-01-12T09:20:20.886Z,13.90
2019-01-12T09:22:50.249Z,15.00
2019-01-12T09:25:19.667Z,14.47
2019-01-12T09:27:49.075Z,12.90
2019-01-12T09:30:20.530Z,12.40
2019-01-12T09:32:50.489Z,14.33
2019-01-12T09:35:19.997Z,13.90
2019-01-12T09:37:49.407Z,14.80
2019-01-12T09:40:20.467Z,15.23
2019-01-12T09:42:50.236Z,17.00
2019-01-12T09:45:19.696Z,18.57
2019-01-12T09:47:49.188Z,16.00
2019-01-12T09:50:19.981Z,13.73
2019-01-12T09:52:49.702Z,12.63
2019-01-12T09:55:19.125Z,13.57
2019-01-12T09:57:48.581Z,21.73
2019-01-12T10:00:20.248Z,13.87
2019-01-12T10:02:49.716Z,12.60
2019-01-12T10:05:19.116Z,13.97
2019-01-12T10:07:48.519Z,12.27
2019-01-12T10:10:19.825Z,15.03
2019-01-12T10:12:49.632Z,13.43
2019-01-12T10:15:19.055Z,15.30
2019-01-12T10:17:48.511Z,12.47
2019-01-12T10:20:18.839Z,14.33
2019-01-12T10:22:48.236Z,13.83
2019-01-12T10:25:18.457Z,11.50
2019-01-12T10:27:47.868Z,13.17
2019-01-12T10:30:22.667Z,12.67
2019-01-12T10:32:52.111Z,14.23
2019-01-12T10:35:21.547Z,12.10
2019-01-12T10:37:50.952Z,11.67
2019-01-12T10:40:20.571Z,12.80
2019-01-12T10:42:50.402Z,12.13
2019-01-12T10:45:21.106Z,11.50
2019-01-12T10:47:51.177Z,12.27
2019-01-12T10:50:23.661Z,13.40
2019-01-12T10:52:53.187Z,13.47
2019-01-12T10:55:22.608Z,11.47
2019-01-12T10:57:52.075Z,12.63
2019-01-12T11:00:24.079Z,12.67
2019-01-12T11:02:53.491Z,11.67
2019-01-12T11:05:23.010Z,13.07
2019-01-12T11:07:52.413Z,9.93
2019-01-12T11:10:21.852Z,11.27
2019-01-12T11:12:51.360Z,11.57
2019-01-12T11:15:21.119Z,10.77
2019-01-12T11:17:50.656Z,10.87
2019-01-12T11:20:20.259Z,10.47
2019-01-12T11:22:49.767Z,10.57
2019-01-12T11:25:19.140Z,12.07
2019-01-12T11:27:48.684Z,10.03
2019-01-12T11:30:18.967Z,11.10
2019-01-12T11:32:48.525Z,13.20
2019-01-12T11:35:17.948Z,10.80
2019-01-12T11:37:47.572Z,10.97
2019-01-12T11:40:18.824Z,11.10
2019-01-12T11:42:49.548Z,14.70
2019-01-12T11:45:19.411Z,11.73
2019-01-12T11:47:48.918Z,11.67
2019-01-12T11:50:18.373Z,12.47
2019-01-12T11:52:47.983Z,10.70
2019-01-12T11:55:18.264Z,10.67
2019-01-12T11:57:47.651Z,11.57
2019-01-12T12:00:24.940Z,10.70
2019-01-12T12:02:54.363Z,13.00
2019-01-12T12:05:23.824Z,12.97
2019-01-12T12:07:53.219Z,11.73
2019-01-12T12:10:22.815Z,9.57
2019-01-12T12:12:52.227Z,8.73
2019-01-12T12:15:22.415Z,9.73
2019-01-12T12:17:51.841Z,10.53
2019-01-12T12:20:23.192Z,11.07
2019-01-12T12:22:52.632Z,12.00
2019-01-12T12:25:22.043Z,13.80
2019-01-12T12:27:51.917Z,11.17
2019-01-12T12:30:26.877Z,12.00
2019-01-12T12:32:56.289Z,12.70
2019-01-12T12:35:25.724Z,12.03
2019-01-12T12:37:55.108Z,11.63
2019-01-12T12:40:26.308Z,11.33
2019-01-12T12:42:55.687Z,13.23
2019-01-12T12:45:33.065Z,17.07
2019-01-12T12:48:02.616Z,11.23
2019-01-12T12:50:31.976Z,9.63
2019-01-12T12:53:01.386Z,11.20
2019-01-12T12:55:30.768Z,17.93
2019-01-12T12:58:00.332Z,13.97
2019-01-12T13:00:31.651Z,10.33
2019-01-12T13:03:01.191Z,9.23
2019-01-12T13:05:30.728Z,9.17
2019-01-12T13:08:00.163Z,12.00
2019-01-12T13:10:31.200Z,9.87
2019-01-12T13:13:00.607Z,13.97
2019-01-12T13:15:30.032Z,14.30
2019-01-12T13:17:59.429Z,13.93
2019-01-12T13:20:28.927Z,9.27
2019-01-12T13:22:58.425Z,12.80
2019-01-12T13:25:27.816Z,10.73
2019-01-12T13:27:57.273Z,10.27
2019-01-12T13:30:27.536Z,9.60
2019-01-12T13:32:56.998Z,13.27
2019-01-12T13:35:26.507Z,14.47
2019-01-12T13:37:56.180Z,14.37
2019-01-12T13:40:27.384Z,11.97
2019-01-12T13:42:57.092Z,11.67
2019-01-12T13:45:26.591Z,13.93
2019-01-12T13:47:56.219Z,14.23
2019-01-12T13:50:27.223Z,10.40
2019-01-12T13:52:56.818Z,14.73
2019-01-12T13:55:26.320Z,11.60
2019-01-12T13:57:55.755Z,13.93
2019-01-12T14:00:36.190Z,14.23
2019-01-12T14:03:07.624Z,13.30
2019-01-12T14:05:37.097Z,11.03
2019-01-12T14:08:07.280Z,12.07
2019-01-12T14:10:36.700Z,11.63
2019-01-12T14:13:07.083Z,12.37
2019-01-12T14:15:36.617Z,13.07
2019-01-12T14:18:06.323Z,11.63
2019-01-12T14:20:38.063Z,11.93
2019-01-12T14:23:07.849Z,12.37
2019-01-12T14:25:37.635Z,12.10
2019-01-12T14:28:07.257Z,14.13
2019-01-12T14:30:36.644Z,10.87
2019-01-12T14:33:06.401Z,10.97
2019-01-12T14:35:35.800Z,10.93
2019-01-12T14:38:05.398Z,10.03
2019-01-12T14:40:34.818Z,12.17
2019-01-12T14:43:04.297Z,11.23
2019-01-12T14:45:34.186Z,10.43
2019-01-12T14:48:03.808Z,10.00
2019-01-12T14:50:33.289Z,10.07
2019-01-12T14:53:02.650Z,10.63
2019-01-12T14:55:32.304Z,10.57
2019-01-12T14:58:02.962Z,11.73
2019-01-12T15:00:32.584Z,9.80
2019-01-12T15:03:02.077Z,10.47
2019-01-12T15:05:32.655Z,11.43
2019-01-12T15:08:02.044Z,10.53
2019-01-12T15:10:31.504Z,10.83
2019-01-12T15:13:00.892Z,10.30
2019-01-12T15:15:31.548Z,8.10
2019-01-12T15:18:00.991Z,10.30
2019-01-12T15:20:31.712Z,9.60
2019-01-12T15:23:02.034Z,10.47
2019-01-12T15:25:31.792Z,9.47
2019-01-12T15:28:01.228Z,8.07
2019-01-12T15:30:32.097Z,9.23
2019-01-12T15:33:03.695Z,10.60
2019-01-12T15:35:34.307Z,9.33
2019-01-12T15:38:03.815Z,10.10
2019-01-12T15:40:33.205Z,11.57
2019-01-12T15:43:02.603Z,8.87
2019-01-12T15:45:32.031Z,10.63
2019-01-12T15:48:01.808Z,10.53
2019-01-12T15:50:31.228Z,9.77
2019-01-12T15:53:01.635Z,8.80
2019-01-12T15:55:31.115Z,9.43
2019-01-12T15:58:00.518Z,9.10
2019-01-12T16:00:30.876Z,8.97
2019-01-12T16:03:00.370Z,8.47
2019-01-12T16:05:32.884Z,12.47
2019-01-12T16:08:02.324Z,8.93
2019-01-12T16:10:31.707Z,12.13
2019-01-12T16:13:01.126Z,9.53
2019-01-12T16:15:30.549Z,9.53
2019-01-12T16:18:00.266Z,9.93
2019-01-12T16:20:32.764Z,8.73
2019-01-12T16:23:02.193Z,8.37
2019-01-12T16:25:32.311Z,8.13
2019-01-12T16:28:03.023Z,8.67
2019-01-12T16:30:32.465Z,8.13
2019-01-12T16:33:01.867Z,6.67
2019-01-12T16:35:31.308Z,7.33
2019-01-12T16:38:00.848Z,6.77
2019-01-12T16:40:30.275Z,8.27
2019-01-12T16:42:59.673Z,10.73
2019-01-12T16:45:29.601Z,12.97
2019-01-12T16:47:59.896Z,7.40
2019-01-12T16:50:31.779Z,12.63
2019-01-12T16:53:03.207Z,10.67
2019-01-12T16:55:34.178Z,7.73
2019-01-12T16:58:05.189Z,8.47
2019-01-12T17:00:36.155Z,9.90
2019-01-12T17:03:07.241Z,9.07
2019-01-12T17:05:38.185Z,10.90
2019-01-12T17:08:09.350Z,11.13
2019-01-12T17:10:42.309Z,11.93
2019-01-12T17:13:13.061Z,10.27
2019-01-12T17:15:44.153Z,13.03
2019-01-12T17:18:16.402Z,9.50
2019-01-12T17:20:48.895Z,12.43
2019-01-12T17:23:19.742Z,11.67
2019-01-12T17:25:50.591Z,10.17
2019-01-12T17:28:21.277Z,11.57
2019-01-12T17:30:51.902Z,12.47
2019-01-12T17:33:22.730Z,10.40
2019-01-12T17:35:56.151Z,10.80
2019-01-12T17:38:27.540Z,12.60
2019-01-12T17:40:57.556Z,11.57
2019-01-12T17:43:28.447Z,14.13
2019-01-12T17:45:58.471Z,13.63
2019-01-12T17:48:28.478Z,11.50
2019-01-12T17:50:58.519Z,11.80
2019-01-12T17:53:28.688Z,12.13
2019-01-12T17:55:58.602Z,16.03
2019-01-12T17:58:28.456Z,10.33
2019-01-12T18:00:58.366Z,11.27
2019-01-12T18:03:28.360Z,11.77
2019-01-12T18:05:57.869Z,13.33
2019-01-12T18:08:27.274Z,12.77
2019-01-12T18:10:56.662Z,11.70
2019-01-12T18:13:28.328Z,10.30
2019-01-12T18:15:57.996Z,21.37
2019-01-12T18:18:27.463Z,31.77
2019-01-12T18:20:57.173Z,9.50
2019-01-12T18:23:26.588Z,11.93
2019-01-12T18:25:56.002Z,11.00
2019-01-12T18:28:25.402Z,8.83
2019-01-12T18:30:54.843Z,7.90
2019-01-12T18:33:24.232Z,7.87
2019-01-12T18:35:53.651Z,8.13
2019-01-12T18:38:23.043Z,10.20
2019-01-12T18:40:52.588Z,8.93
2019-01-12T18:43:22.022Z,8.03
2019-01-12T18:45:51.477Z,8.13
2019-01-12T18:48:21.250Z,7.93
2019-01-12T18:50:50.664Z,7.57
2019-01-12T18:53:20.116Z,7.70
2019-01-12T18:55:49.537Z,9.17
2019-01-12T18:58:19.315Z,8.93
2019-01-12T19:00:48.708Z,9.20
2019-01-12T19:03:18.195Z,7.60
2019-01-12T19:05:47.648Z,9.83
2019-01-12T19:08:17.060Z,8.43
2019-01-12T19:10:46.501Z,9.63
2019-01-12T19:13:16.193Z,8.57
2019-01-12T19:15:45.648Z,11.67
2019-01-12T19:18:15.053Z,9.33
2019-01-12T19:20:44.449Z,10.33
2019-01-12T19:23:13.889Z,6.83
2019-01-12T19:25:43.282Z,8.63
2019-01-12T19:28:12.714Z,8.90
2019-01-12T19:30:42.115Z,7.30
2019-01-12T19:33:11.592Z,8.33
2019-01-12T19:35:41.355Z,7.40
2019-01-12T19:38:11.088Z,10.37
2019-01-12T19:40:40.882Z,8.40
2019-01-12T19:43:10.268Z,8.57
2019-01-12T19:45:39.706Z,8.97
2019-01-12T19:48:09.117Z,7.40
2019-01-12T19:50:38.551Z,7.43
2019-01-12T19:53:07.960Z,8.50
2019-01-12T19:55:37.360Z,7.43
2019-01-12T19:58:07.136Z,7.87
2019-01-12T20:00:36.551Z,7.60
2019-01-12T20:03:06.010Z,9.60
2019-01-12T20:05:35.484Z,6.53
2019-01-12T20:08:05.071Z,7.47
2019-01-12T20:10:34.513Z,7.00
2019-01-12T20:13:04.153Z,6.93
2019-01-12T20:15:33.595Z,6.80
2019-01-12T20:18:03.206Z,6.40
2019-01-12T20:20:32.620Z,6.80
2019-01-12T20:23:02.383Z,6.53
2019-01-12T20:25:32.607Z,6.83
2019-01-12T20:28:14.095Z,6.77
2019-01-12T20:31:04.076Z,5.83
2019-01-12T20:34:10.132Z,6.73
2019-01-12T20:37:22.168Z,7.17
2019-01-12T20:40:28.834Z,5.67
2019-01-12T20:43:36.789Z,5.20
2019-01-12T20:46:50.302Z,6.53
2019-01-12T20:49:30.295Z,6.23
2019-01-12T20:52:22.303Z,6.27
2019-01-12T20:55:31.227Z,6.47
2019-01-12T20:58:35.090Z,5.00
2019-01-12T21:01:54.812Z,6.13
2019-01-12T21:05:18.366Z,5.27
2019-01-12T21:07:52.508Z,5.43
2019-01-12T21:11:15.102Z,4.73
2019-01-12T21:14:41.951Z,5.23
2019-01-12T21:17:13.985Z,5.23
2019-01-12T21:19:48.003Z,4.37
2019-01-12T21:22:15.074Z,4.33
2019-01-12T21:24:44.597Z,5.07
2019-01-12T21:27:14.028Z,4.97
2019-01-12T21:29:43.412Z,5.30
2019-01-12T21:32:12.803Z,7.00
2019-01-12T21:34:42.199Z,4.80
2019-01-12T21:37:11.656Z,25.10
2019-01-12T21:39:41.056Z,5.23
2019-01-12T21:42:10.711Z,5.47
2019-01-12T21:44:40.127Z,5.20
2019-01-12T21:47:09.515Z,4.27
2019-01-12T21:49:39.187Z,4.03
2019-01-12T21:52:08.936Z,6.57
2019-01-12T21:54:38.352Z,4.00
2019-01-12T21:57:07.747Z,4.70
2019-01-12T21:59:42.407Z,3.83
2019-01-12T22:02:08.527Z,5.47
2019-01-12T22:04:38.348Z,4.30
2019-01-12T22:07:07.775Z,9.37
2019-01-12T22:09:37.163Z,17.97
2019-01-12T22:12:06.955Z,4.87
2019-01-12T22:14:36.348Z,4.47
2019-01-12T22:17:05.764Z,5.70
2019-01-12T22:19:35.171Z,4.60
2019-01-12T22:22:04.601Z,3.93
2019-01-12T22:24:34.003Z,3.57
2019-01-12T22:27:03.406Z,3.07
2019-01-12T22:29:32.821Z,2.67
2019-01-12T22:32:02.187Z,3.47
2019-01-12T22:34:31.611Z,3.23
2019-01-12T22:37:00.924Z,2.70
2019-01-12T22:39:30.433Z,4.00
2019-01-12T22:41:59.823Z,3.03
2019-01-12T22:44:29.201Z,2.80
2019-01-12T22:46:58.611Z,2.20
2019-01-12T22:49:27.991Z,3.17
2019-01-12T22:51:57.404Z,2.40
2019-01-12T22:54:26.795Z,2.43
2019-01-12T22:56:56.710Z,2.60
2019-01-12T22:59:28.694Z,2.93
2019-01-12T23:02:08.271Z,2.53
2019-01-12T23:04:37.731Z,2.83
2019-01-12T23:07:11.613Z,2.53
2019-01-12T23:09:40.687Z,2.30
2019-01-12T23:12:10.117Z,2.13
2019-01-12T23:14:39.515Z,2.90
2019-01-12T23:17:08.903Z,2.07
2019-01-12T23:19:38.583Z,2.40
2019-01-12T23:22:07.975Z,2.50
2019-01-12T23:24:37.367Z,1.90
2019-01-12T23:27:06.752Z,2.17
2019-01-12T23:29:36.147Z,2.23
2019-01-12T23:32:05.950Z,1.80
2019-01-12T23:34:35.358Z,2.00
2019-01-12T23:37:04.790Z,2.13
2019-01-12T23:39:34.163Z,2.20
2019-01-12T23:42:03.500Z,2.03
2019-01-12T23:44:33.689Z,1.97
2019-01-12T23:47:03.091Z,2.93
2019-01-12T23:49:32.464Z,2.33
2019-01-12T23:52:01.895Z,2.37
2019-01-12T23:54:31.291Z,2.27
2019-01-12T23:57:00.750Z,3.47
2019-01-12T23:59:30.160Z,2.00
